Terminal Aerodrome Forecast
Issued by NWS Huntsville, AL

Home | Current Version | Previous Version | Text Only | Print | Product List | Glossary On
Versions: 1 2 3 4 5 6 7 8 9 10 11 12 13 14 15 16 17 18 19 20 21 22 23 24 25
000
FTUS44 KHUN 031720
TAFMSL
TAF
KMSL 031720Z 0318/0418 16007KT P6SM VCSH BKN006 OVC015
     FM040200 20013KT 5SM BR VCSH BKN006 OVC015
      TEMPO 0402/0406 2SM SHRA BR
     FM040800 20013KT 5SM BR VCSH OVC006
     FM041700 33009KT 4SM -RA BR OVC008=

USA.gov is the U.S. government's official web portal to all federal, state and local government web resources and services.